Terminal Aerodrome Forecast
Issued by NWS

Home | Current Version | Previous Version | Text Only | Print | Product List | Glossary Off
Versions: 1 2 3 4 5 6 7 8 9 10 11 12 13

000
FTUS43 KGRB 011132
TAFCWA
TAF
KCWA 011132Z 0112/0212 03007KT P6SM SCT040 BKN070
     FM011800 04010G15KT P6SM SCT040 BKN080
     FM012200 07007KT P6SM SCT100
     FM020300 02003KT P6SM SKC=

USA.gov is the U.S. government's official web portal to all federal, state and local government web resources and services.